Time;durP1;ratioP1;P1;durP2;ratioP2;P2;SDS_P1;SDS_P2;PMS_P1;PMS_P2;Temp;Humidity;BMP_temperature;BMP_pressure;BME280_temperature;BME280_humidity;BME280_pressure;Samples;Min_cycle;Max_cycle;Signal;HPM_P1;HPM_P2
2022/01/27 00:00:49;;;;;;;43.15;21.20;;;;;;;7.01;59.45;102141.13;690359;28;802;-85
2022/01/27 00:03:37;;;;;;;44.75;19.60;;;;;;;7.03;59.64;102137.84;690804;28;846;-85
2022/01/27 00:04:06;;;;;;;41.83;19.17;;;;;;;7.05;59.33;102157.00;685102;28;1259;-85
2022/01/27 00:04:36;;;;;;;44.17;19.10;;;;;;;7.11;59.26;102143.50;688070;28;724;-85
2022/01/27 00:05:31;;;;;;;47.28;20.88;;;;;;;7.11;59.25;102134.03;690527;28;1760;-85
2022/01/27 00:06:02;;;;;;;43.22;20.10;;;;;;;7.08;59.62;102139.06;690534;28;855;-85
2022/01/27 00:06:23;;;;;;;44.13;20.08;;;;;;;7.06;59.11;102125.06;690615;28;854;-85
2022/01/27 00:06:44;;;;;;;45.53;20.67;;;;;;;7.13;59.48;102142.81;690718;28;1485;-84
2022/01/27 00:07:04;;;;;;;44.63;20.42;;;;;;;7.06;59.23;102144.94;691892;28;1112;-86
2022/01/27 00:07:25;;;;;;;45.92;21.33;;;;;;;7.07;59.52;102132.03;690696;28;1207;-86
2022/01/27 00:08:09;;;;;;;46.10;20.45;;;;;;;7.07;59.05;102132.03;687068;28;1196;-85
2022/01/27 00:08:38;;;;;;;41.75;19.88;;;;;;;7.09;58.88;102129.53;688845;28;1627;-85
2022/01/27 00:09:08;;;;;;;47.65;21.13;;;;;;;7.05;59.19;102133.66;685647;28;1980;-85
2022/01/27 00:10:31;;;;;;;43.70;20.58;;;;;;;7.06;59.29;102139.75;682278;29;1405;-85
2022/01/27 00:10:56;;;;;;;37.78;19.08;;;;;;;7.11;59.00;102135.72;687856;28;820;-86
2022/01/27 00:11:17;;;;;;;39.45;19.30;;;;;;;7.12;58.80;102130.66;688907;28;1017;-85
2022/01/27 00:11:39;;;;;;;40.10;19.30;;;;;;;7.23;58.85;102143.41;685124;28;1047;-85
2022/01/27 00:12:01;;;;;;;41.55;19.17;;;;;;;7.24;58.63;102147.78;688328;28;1174;-85
2022/01/27 00:12:22;;;;;;;42.20;19.23;;;;;;;7.09;59.04;102130.47;684996;28;1255;-85
2022/01/27 00:12:43;;;;;;;46.45;20.58;;;;;;;7.12;59.06;102135.84;688067;28;755;-85
2022/01/27 00:13:09;;;;;;;45.58;21.30;;;;;;;7.09;58.63;102122.66;685028;28;1234;-85
2022/01/27 00:13:43;;;;;;;44.75;20.95;;;;;;;7.07;58.97;102137.22;685373;28;792;-85
2022/01/27 00:14:04;;;;;;;42.45;19.58;;;;;;;7.12;58.94;102119.34;686351;28;1202;-85
2022/01/27 00:14:24;;;;;;;43.65;19.25;;;;;;;7.17;58.73;102127.47;685897;28;1246;-85
2022/01/27 00:14:52;;;;;;;45.80;20.10;;;;;;;7.12;58.42;102114.16;685406;28;745;-84
2022/01/27 00:15:14;;;;;;;47.67;20.80;;;;;;;7.22;58.82;102123.44;684836;28;1382;-85
2022/01/27 00:15:35;;;;;;;46.30;20.75;;;;;;;7.21;58.76;102124.25;690747;28;965;-85
2022/01/27 00:16:11;;;;;;;42.80;20.05;;;;;;;7.13;58.72;102111.66;687916;28;1488;-85
2022/01/27 00:16:38;;;;;;;43.35;19.98;;;;;;;7.23;58.16;102127.81;690611;28;815;-85
2022/01/27 00:17:08;;;;;;;43.47;20.98;;;;;;;7.09;58.31;102106.19;687843;28;1149;-84
2022/01/27 00:17:31;;;;;;;42.42;20.00;;;;;;;7.15;58.68;102124.75;687886;28;1111;-86
2022/01/27 00:17:58;;;;;;;42.38;19.85;;;;;;;7.14;58.54;102122.97;682516;29;879;-85
2022/01/27 00:18:47;;;;;;;42.63;19.40;;;;;;;7.22;58.33;102131.22;681415;29;1054;-85
2022/01/27 00:19:10;;;;;;;42.15;20.17;;;;;;;7.23;58.20;102123.53;681012;28;1376;-85
2022/01/27 00:19:30;;;;;;;39.80;20.15;;;;;;;7.19;58.40;102115.47;687507;28;1628;-85
2022/01/27 00:19:51;;;;;;;44.75;20.67;;;;;;;7.19;58.33;102105.09;690544;28;728;-84
2022/01/27 00:20:14;;;;;;;44.00;20.33;;;;;;;7.23;58.34;102118.34;690554;28;1104;-85
2022/01/27 00:20:34;;;;;;;42.75;19.67;;;;;;;7.19;58.06;102100.75;693397;28;1617;-85
2022/01/27 00:20:56;;;;;;;44.23;20.17;;;;;;;7.25;58.04;102126.25;687907;28;1040;-85
2022/01/27 00:21:39;;;;;;;45.33;21.30;;;;;;;7.17;58.20;102122.25;690682;28;1265;-85
2022/01/27 00:21:59;;;;;;;40.80;20.40;;;;;;;7.02;58.06;102112.69;684062;28;1869;-85
2022/01/27 00:22:20;;;;;;;39.95;19.75;;;;;;;7.06;58.19;102125.06;682538;28;1374;-85
2022/01/27 00:22:42;;;;;;;42.73;19.80;;;;;;;7.18;58.08;102113.69;685309;28;798;-85
2022/01/27 00:23:04;;;;;;;42.47;19.50;;;;;;;7.13;57.72;102101.28;683555;28;1409;-85
2022/01/27 00:23:25;;;;;;;43.03;19.20;;;;;;;7.23;58.20;102102.78;685115;28;1152;-85
2022/01/27 00:23:47;;;;;;;41.55;19.42;;;;;;;7.29;58.00;102111.75;686307;28;1404;-85
2022/01/27 00:24:07;;;;;;;43.88;19.98;;;;;;;7.22;57.73;102094.88;690637;28;1170;-85
2022/01/27 00:24:28;;;;;;;42.15;19.70;;;;;;;7.15;58.29;102088.41;691256;28;1722;-84
2022/01/27 00:24:48;;;;;;;41.13;19.77;;;;;;;7.13;58.07;102088.31;686471;28;849;-85
2022/01/27 00:25:09;;;;;;;42.53;20.15;;;;;;;7.20;57.89;102097.41;690035;28;1254;-85
2022/01/27 00:25:30;;;;;;;43.58;20.48;;;;;;;7.16;57.74;102091.88;688472;28;1339;-85
2022/01/27 00:25:50;;;;;;;43.47;19.95;;;;;;;7.24;58.09;102098.47;688894;28;838;-84
2022/01/27 00:26:15;;;;;;;41.50;19.55;;;;;;;7.23;57.94;102091.47;687972;28;1239;-85
2022/01/27 00:26:36;;;;;;;41.50;19.25;;;;;;;7.20;57.57;102088.69;685326;28;761;-85
2022/01/27 00:26:57;;;;;;;42.73;19.83;;;;;;;7.25;57.56;102100.28;686737;28;1247;-84
2022/01/27 00:27:17;;;;;;;41.53;20.05;;;;;;;7.15;57.54;102095.28;687801;28;1319;-85
2022/01/27 00:27:38;;;;;;;40.53;20.35;;;;;;;7.24;57.39;102103.66;690791;28;1151;-84
2022/01/27 00:28:00;;;;;;;38.65;20.08;;;;;;;7.22;57.77;102102.66;685216;28;1297;-85
2022/01/27 00:28:21;;;;;;;38.10;19.42;;;;;;;7.12;57.56;102091.69;687986;28;1341;-85
2022/01/27 00:28:42;;;;;;;38.22;19.05;;;;;;;7.13;57.82;102082.22;688013;28;1281;-85
2022/01/27 00:29:03;;;;;;;40.65;18.77;;;;;;;7.03;57.72;102080.75;683724;28;1898;-85
2022/01/27 00:29:23;;;;;;;43.65;18.92;;;;;;;7.01;57.87;102095.31;682556;28;853;-84
2022/01/27 00:29:44;;;;;;;46.03;19.97;;;;;;;7.04;58.08;102079.94;684938;28;776;-86
2022/01/27 00:30:06;;;;;;;44.60;20.58;;;;;;;7.15;58.12;102083.22;691133;28;1203;-85
2022/01/27 00:30:27;;;;;;;44.92;20.88;;;;;;;7.13;57.61;102075.31;689172;28;2036;-85
2022/01/27 00:30:47;;;;;;;45.30;20.03;;;;;;;7.12;57.70;102096.91;691959;28;930;-86
2022/01/27 00:31:09;;;;;;;46.70;19.90;;;;;;;7.21;57.76;102096.59;686309;28;1257;-84
2022/01/27 00:31:29;;;;;;;46.00;19.98;;;;;;;7.16;57.51;102085.00;686604;28;1158;-85
2022/01/27 00:31:50;;;;;;;45.30;20.23;;;;;;;7.12;57.68;102094.28;688575;28;1164;-85
2022/01/27 00:32:11;;;;;;;43.33;19.85;;;;;;;7.14;57.49;102076.22;687484;28;1199;-85
2022/01/27 00:32:32;;;;;;;45.30;20.40;;;;;;;7.12;57.62;102102.09;687726;28;1030;-86
2022/01/27 00:32:53;;;;;;;42.38;20.25;;;;;;;7.10;57.52;102074.22;688048;28;763;-85
2022/01/27 00:33:13;;;;;;;42.93;20.17;;;;;;;7.11;57.59;102084.72;690826;28;1051;-84
2022/01/27 00:33:34;;;;;;;42.60;19.70;;;;;;;7.19;57.41;102084.31;693248;28;843;-85
2022/01/27 00:33:55;;;;;;;42.38;19.65;;;;;;;7.09;57.35;102065.56;685348;28;954;-85
2022/01/27 00:34:15;;;;;;;41.20;20.15;;;;;;;7.15;57.56;102066.72;688237;28;1545;-85
2022/01/27 00:34:45;;;;;;;39.77;19.43;;;;;;;7.14;57.13;102071.03;685426;28;1375;-85
2022/01/27 00:35:06;;;;;;;41.85;19.20;;;;;;;7.12;57.13;102063.13;683752;28;1147;-84
2022/01/27 00:35:26;;;;;;;42.25;19.05;;;;;;;7.11;57.26;102082.13;689104;28;1287;-85
2022/01/27 00:35:47;;;;;;;40.83;19.48;;;;;;;7.20;57.46;102075.72;685537;28;1295;-84
2022/01/27 00:36:08;;;;;;;40.27;19.30;;;;;;;7.15;57.27;102071.91;685062;28;1152;-85
2022/01/27 00:36:28;;;;;;;41.53;19.75;;;;;;;7.11;57.34;102058.75;687896;28;811;-84
2022/01/27 00:36:49;;;;;;;41.67;19.92;;;;;;;7.15;57.11;102066.72;687891;28;1711;-85
2022/01/27 00:37:09;;;;;;;44.40;19.52;;;;;;;7.07;57.71;102064.53;692784;28;1073;-84
2022/01/27 00:37:30;;;;;;;43.53;20.00;;;;;;;7.10;57.58;102059.56;689911;28;1394;-85
2022/01/27 00:37:51;;;;;;;42.95;19.08;;;;;;;7.17;57.14;102067.75;687924;28;1158;-85
2022/01/27 00:38:12;;;;;;;39.95;19.10;;;;;;;7.16;57.02;102053.84;687520;28;1494;-85
2022/01/27 00:38:32;;;;;;;38.40;18.35;;;;;;;7.20;57.21;102070.53;682559;29;860;-84
2022/01/27 00:38:53;;;;;;;39.57;19.47;;;;;;;7.16;57.40;102052.94;688006;28;1133;-85
2022/01/27 00:39:13;;;;;;;38.57;19.43;;;;;;;7.17;57.13;102055.63;687807;28;1141;-85
2022/01/27 00:39:34;;;;;;;41.05;19.75;;;;;;;7.13;56.93;102051.94;693090;28;768;-85
2022/01/27 00:39:55;;;;;;;41.50;20.10;;;;;;;7.14;57.10;102055.47;693320;28;751;-85
2022/01/27 00:40:16;;;;;;;42.53;20.00;;;;;;;7.23;56.82;102063.81;688993;28;1675;-84
2022/01/27 00:40:38;;;;;;;42.53;19.90;;;;;;;7.20;57.03;102065.31;687442;28;1541;-85
2022/01/27 00:40:59;;;;;;;40.88;19.65;;;;;;;7.25;57.01;102064.81;685036;28;1260;-85
2022/01/27 00:41:21;;;;;;;42.30;20.27;;;;;;;7.18;56.76;102052.25;685299;28;1187;-85
2022/01/27 00:41:41;;;;;;;39.80;20.25;;;;;;;7.25;56.98;102053.53;685187;28;969;-85
2022/01/27 00:42:02;;;;;;;40.57;20.57;;;;;;;7.23;56.90;102053.44;683561;28;1181;-85
2022/01/27 00:42:24;;;;;;;41.95;21.23;;;;;;;7.21;56.56;102049.84;682647;28;721;-85
2022/01/27 00:42:45;;;;;;;44.33;21.25;;;;;;;7.25;56.75;102048.34;685338;28;786;-85
2022/01/27 00:43:06;;;;;;;42.70;19.90;;;;;;;7.24;56.55;102051.72;689160;28;1108;-84
2022/01/27 00:43:26;;;;;;;42.17;19.93;;;;;;;7.18;56.69;102064.34;692703;28;847;-84
2022/01/27 00:43:52;;;;;;;41.17;20.40;;;;;;;7.11;56.38;102069.13;693451;28;866;-85
2022/01/27 00:44:14;;;;;;;42.42;21.35;;;;;;;7.22;56.78;102058.53;693380;28;1181;-85
2022/01/27 00:44:35;;;;;;;43.90;21.50;;;;;;;7.08;57.12;102035.22;688013;28;1494;-85
2022/01/27 00:44:56;;;;;;;43.77;21.23;;;;;;;7.11;56.74;102040.59;685298;28;792;-85
2022/01/27 00:45:16;;;;;;;41.75;19.95;;;;;;;7.15;56.97;102033.88;687468;28;1115;-84
2022/01/27 00:45:37;;;;;;;39.17;19.27;;;;;;;7.12;56.65;102044.97;687930;28;1158;-85
2022/01/27 00:45:58;;;;;;;40.92;18.92;;;;;;;7.01;56.32;102047.69;688100;28;1163;-85
2022/01/27 00:46:19;;;;;;;39.38;19.23;;;;;;;7.16;57.17;102052.94;690521;28;1190;-84
2022/01/27 00:46:40;;;;;;;40.00;19.70;;;;;;;7.11;56.83;102043.19;690188;28;874;-85
2022/01/27 00:47:00;;;;;;;40.03;19.77;;;;;;;7.18;56.99;102051.34;687831;28;1395;-85
2022/01/27 00:47:42;;;;;;;40.05;20.15;;;;;;;7.27;56.49;102062.31;693249;28;1180;-85
2022/01/27 00:48:05;;;;;;;38.78;20.20;;;;;;;7.10;56.53;102033.59;691351;28;1184;-85
2022/01/27 00:48:25;;;;;;;39.20;20.27;;;;;;;7.11;56.70;102050.06;687630;28;1267;-85
2022/01/27 00:48:47;;;;;;;40.47;20.55;;;;;;;7.17;56.57;102047.84;685252;28;950;-85
2022/01/27 00:49:08;;;;;;;40.70;21.25;;;;;;;7.10;56.68;102041.38;686550;28;1958;-84
2022/01/27 00:49:28;;;;;;;40.80;20.90;;;;;;;7.11;56.28;102040.59;692896;28;1254;-85
2022/01/27 00:49:49;;;;;;;39.60;20.33;;;;;;;7.13;56.74;102048.47;692354;28;1139;-85
2022/01/27 00:50:10;;;;;;;40.13;19.63;;;;;;;7.10;56.22;102043.97;688719;28;1192;-85
2022/01/27 00:50:36;;;;;;;36.70;18.88;;;;;;;7.13;56.66;102038.09;685257;28;839;-85
2022/01/27 00:51:01;;;;;;;36.83;19.42;;;;;;;7.11;56.24;102039.66;687873;28;1110;-85
2022/01/27 00:51:22;;;;;;;40.90;20.48;;;;;;;7.17;56.97;102066.03;690413;28;1456;-85
2022/01/27 00:51:46;;;;;;;43.67;20.60;;;;;;;7.10;56.43;102054.38;687324;28;1134;-85
2022/01/27 00:52:15;;;;;;;43.30;21.20;;;;;;;7.08;56.70;102058.56;689144;28;1094;-85
2022/01/27 00:52:43;;;;;;;41.03;20.42;;;;;;;7.08;56.29;102066.38;690729;28;696;-85
2022/01/27 00:53:16;;;;;;;38.78;20.05;;;;;;;7.01;56.64;102064.19;684460;28;1221;-85
2022/01/27 00:54:24;;;;;;;40.35;19.80;;;;;;;6.89;57.16;102055.59;690582;28;1191;-84
2022/01/27 00:54:45;;;;;;;40.55;19.92;;;;;;;6.94;56.51;102059.41;690645;28;888;-85
2022/01/27 00:55:08;;;;;;;41.92;19.90;;;;;;;6.87;57.20;102059.81;684842;28;1365;-85
2022/01/27 00:55:32;;;;;;;41.63;20.45;;;;;;;6.88;56.89;102056.41;687852;28;1335;-85
2022/01/27 00:55:54;;;;;;;42.40;20.83;;;;;;;6.84;56.74;102064.00;684842;28;1366;-85
2022/01/27 00:56:25;;;;;;;43.45;21.15;;;;;;;6.78;56.83;102048.03;687604;28;1417;-85
2022/01/27 00:57:38;;;;;;;41.53;20.20;;;;;;;6.91;56.85;102075.66;682649;29;736;-86
2022/01/27 00:58:01;;;;;;;44.08;20.20;;;;;;;6.81;56.51;102050.81;679000;28;1353;-85
2022/01/27 00:59:34;;;;;;;42.47;20.80;;;;;;;6.82;56.63;102073.38;684910;28;1010;-85
2022/01/27 00:59:59;;;;;;;45.10;20.05;;;;;;;6.83;56.64;102053.50;679653;29;1041;-85
2022/01/27 01:00:26;;;;;;;43.72;20.05;;;;;;;6.86;56.58;102064.06;679257;29;1018;-85
2022/01/27 01:00:55;;;;;;;41.70;20.80;;;;;;;6.90;56.10;102049.59;679725;29;1191;-85
2022/01/27 01:01:19;;;;;;;43.20;20.58;;;;;;;6.86;55.83;102048.50;677026;29;2019;-85
2022/01/27 01:01:44;;;;;;;41.35;20.38;;;;;;;6.74;56.32;102043.44;676803;29;1400;-85
2022/01/27 01:02:14;;;;;;;39.70;20.88;;;;;;;6.77;56.22;102069.59;684473;28;1331;-85
2022/01/27 01:03:23;;;;;;;38.44;19.04;;;;;;;6.91;56.14;102064.38;687689;28;1122;-85
2022/01/27 01:03:46;;;;;;;39.90;20.58;;;;;;;6.91;56.03;102059.19;682175;28;1602;-85
2022/01/27 01:04:09;;;;;;;39.08;20.58;;;;;;;6.94;56.03;102060.28;683846;28;1174;-85
2022/01/27 01:04:34;;;;;;;39.47;19.92;;;;;;;6.98;55.93;102058.78;686913;28;2029;-85
2022/01/27 01:06:06;;;;;;;42.17;20.73;;;;;;;6.87;55.95;102059.81;690715;28;1402;-85
2022/01/27 01:06:47;;;;;;;36.30;18.65;;;;;;;6.98;55.43;102064.88;685151;28;1211;-84
2022/01/27 01:07:09;;;;;;;40.45;19.85;;;;;;;7.01;55.30;102071.97;690422;28;1679;-85
2022/01/27 01:07:34;;;;;;;42.30;19.60;;;;;;;6.95;55.77;102048.22;689849;28;1735;-86
2022/01/27 01:07:58;;;;;;;41.78;20.20;;;;;;;7.03;55.62;102061.66;686336;28;1268;-84
2022/01/27 01:14:43;;;;;;;38.97;20.42;;;;;;;6.90;55.35;102039.22;691212;28;1267;-85
2022/01/27 01:15:14;;;;;;;44.70;20.92;;;;;;;6.75;55.51;102039.16;692772;28;1262;-85
2022/01/27 01:15:38;;;;;;;43.63;21.23;;;;;;;6.89;55.60;102033.16;686951;28;942;-84
2022/01/27 01:15:59;;;;;;;43.70;21.33;;;;;;;6.98;55.57;102053.56;684763;28;1181;-85
2022/01/27 01:18:05;;;;;;;36.55;19.70;;;;;;;6.91;55.21;102054.00;690480;28;835;-85
2022/01/27 01:18:30;;;;;;;38.22;19.65;;;;;;;6.80;55.06;102033.44;692272;28;1199;-85
2022/01/27 01:19:04;;;;;;;39.45;19.75;;;;;;;6.96;55.02;102044.81;690055;28;1370;-85
2022/01/27 01:20:34;;;;;;;37.42;20.50;;;;;;;7.02;55.01;102049.47;683183;28;1226;-84
2022/01/27 01:21:31;;;;;;;38.90;20.63;;;;;;;7.01;55.01;102037.31;689530;28;1093;-85
2022/01/27 01:30:08;;;;;;;40.55;21.20;;;;;;;6.83;54.96;102038.81;687288;28;862;-85
2022/01/27 01:30:49;;;;;;;40.78;20.85;;;;;;;6.89;54.52;102053.00;691147;28;1448;-85
2022/01/27 01:31:26;;;;;;;39.18;19.92;;;;;;;6.92;54.57;102043.72;693753;28;1194;-85
2022/01/27 01:33:14;;;;;;;39.65;21.00;;;;;;;6.92;54.83;102043.72;682112;28;1367;-85
2022/01/27 01:33:37;;;;;;;40.42;20.88;;;;;;;6.90;54.01;102034.94;684847;28;1229;-84
2022/01/27 01:34:14;;;;;;;40.25;20.58;;;;;;;6.93;54.58;102039.44;682531;28;1105;-85
2022/01/27 01:34:42;;;;;;;38.20;20.23;;;;;;;6.94;54.19;102057.69;684655;28;1256;-85
2022/01/27 01:35:07;;;;;;;38.05;20.23;;;;;;;6.85;54.61;102042.44;687651;28;1109;-85
2022/01/27 01:35:29;;;;;;;39.55;20.52;;;;;;;6.88;54.61;102038.22;686010;28;1700;-85
2022/01/27 01:36:00;;;;;;;40.08;21.05;;;;;;;6.89;54.59;102053.91;687645;28;1232;-85
2022/01/27 01:36:34;;;;;;;41.03;20.60;;;;;;;6.87;54.48;102036.44;688145;28;1247;-85
2022/01/27 01:37:18;;;;;;;40.87;19.97;;;;;;;6.91;54.15;102046.19;688683;28;1189;-85
2022/01/27 01:37:41;;;;;;;39.75;20.40;;;;;;;6.94;54.21;102069.78;686063;28;772;-85
2022/01/27 01:38:02;;;;;;;40.55;20.30;;;;;;;6.88;54.25;102044.31;682747;28;1228;-84
2022/01/27 01:38:26;;;;;;;39.72;20.10;;;;;;;6.94;54.06;102062.88;685243;28;815;-85
2022/01/27 01:38:46;;;;;;;38.88;20.42;;;;;;;6.90;54.33;102050.50;685383;28;900;-84
2022/01/27 01:39:07;;;;;;;38.10;20.35;;;;;;;6.94;54.29;102051.59;688023;28;1213;-84
2022/01/27 01:39:30;;;;;;;37.43;20.37;;;;;;;6.93;54.47;102060.19;687533;28;1126;-84
2022/01/27 01:39:51;;;;;;;37.10;19.75;;;;;;;6.81;54.49;102035.25;684994;28;939;-84
2022/01/27 01:40:15;;;;;;;39.67;20.52;;;;;;;6.93;54.46;102049.81;687887;28;1123;-85
2022/01/27 01:40:35;;;;;;;40.10;20.70;;;;;;;6.89;54.71;102046.13;687775;28;1283;-85
2022/01/27 01:41:13;;;;;;;40.10;21.35;;;;;;;6.96;54.74;102057.78;687617;28;1106;-84
2022/01/27 01:41:33;;;;;;;38.92;20.10;;;;;;;6.77;54.57;102047.94;689478;28;1451;-85
2022/01/27 01:41:55;;;;;;;36.17;19.50;;;;;;;6.73;54.86;102036.44;689023;28;784;-85
2022/01/27 01:42:16;;;;;;;35.92;19.98;;;;;;;6.81;54.53;102047.34;689945;28;1277;-84
2022/01/27 01:42:37;;;;;;;37.53;20.33;;;;;;;6.85;54.70;102047.63;690398;28;1062;-84
2022/01/27 01:42:58;;;;;;;40.17;21.00;;;;;;;6.80;54.68;102040.31;687060;28;1371;-84
2022/01/27 01:43:20;;;;;;;41.63;21.30;;;;;;;6.89;54.26;102042.63;693176;28;1240;-85
2022/01/27 01:43:40;;;;;;;40.58;20.52;;;;;;;6.90;54.62;102052.19;693133;28;1150;-85
2022/01/27 01:44:01;;;;;;;41.90;20.77;;;;;;;6.84;54.18;102040.66;693144;28;1060;-84
2022/01/27 01:44:22;;;;;;;39.47;20.20;;;;;;;6.81;54.12;102040.44;690419;28;1150;-85
2022/01/27 01:44:45;;;;;;;38.25;19.85;;;;;;;6.72;54.50;102019.09;687395;28;1551;-85
2022/01/27 01:45:09;;;;;;;35.60;18.83;;;;;;;6.77;54.68;102022.88;685016;28;1127;-84
2022/01/27 01:45:34;;;;;;;35.55;19.27;;;;;;;6.88;54.08;102041.72;685408;28;1401;-85
2022/01/27 01:45:54;;;;;;;34.65;19.50;;;;;;;6.92;54.45;102045.41;690471;28;855;-85
2022/01/27 01:46:15;;;;;;;36.90;19.90;;;;;;;6.90;54.18;102028.84;688211;28;1691;-85
2022/01/27 01:46:36;;;;;;;36.50;19.63;;;;;;;6.87;54.19;102039.03;685044;28;1105;-85
2022/01/27 01:46:57;;;;;;;35.00;19.15;;;;;;;6.79;53.97;102026.47;687695;28;1366;-84
2022/01/27 01:47:20;;;;;;;35.90;19.15;;;;;;;6.83;54.12;102035.34;682253;28;1227;-85
2022/01/27 01:47:40;;;;;;;37.35;19.77;;;;;;;6.94;54.46;102041.22;682241;29;1875;-85
2022/01/27 01:48:01;;;;;;;37.20;19.53;;;;;;;6.87;54.43;102031.25;685515;28;1065;-86
2022/01/27 01:48:23;;;;;;;36.67;19.70;;;;;;;6.82;54.31;102029.25;686598;28;1271;-84
2022/01/27 01:48:44;;;;;;;39.25;19.85;;;;;;;6.83;54.15;102033.63;690305;28;1739;-84
2022/01/27 01:49:05;;;;;;;36.65;19.50;;;;;;;6.90;54.17;102054.78;692750;28;1977;-85
2022/01/27 01:49:27;;;;;;;34.13;18.30;;;;;;;6.83;54.40;102033.63;687310;28;1403;-85
2022/01/27 01:49:47;;;;;;;33.50;18.35;;;;;;;6.80;54.25;102033.44;687428;28;868;-85
2022/01/27 01:50:09;;;;;;;35.55;18.42;;;;;;;6.84;54.15;102034.53;691647;28;1168;-84
2022/01/27 01:50:30;;;;;;;36.53;19.30;;;;;;;6.82;54.29;102026.66;693264;28;790;-85
2022/01/27 01:50:51;;;;;;;37.77;18.97;;;;;;;6.81;53.90;102024.84;692952;28;1872;-84
2022/01/27 01:51:12;;;;;;;37.80;19.43;;;;;;;6.91;54.02;102033.22;687510;28;1215;-85
2022/01/27 01:51:35;;;;;;;37.63;19.52;;;;;;;6.89;54.12;102035.75;684921;28;1264;-85
2022/01/27 01:51:58;;;;;;;37.35;20.33;;;;;;;6.84;54.24;102029.34;684637;28;1334;-84
2022/01/27 01:52:19;;;;;;;36.10;19.98;;;;;;;6.84;54.02;102014.69;684802;28;1561;-85
2022/01/27 01:52:40;;;;;;;36.25;19.50;;;;;;;6.77;54.21;102038.47;687740;28;1150;-84
2022/01/27 01:53:02;;;;;;;35.20;19.13;;;;;;;6.84;54.34;102040.66;689236;28;1898;-84
2022/01/27 01:53:23;;;;;;;34.03;18.92;;;;;;;6.80;53.72;102030.84;682427;28;1105;-84
2022/01/27 01:53:43;;;;;;;32.63;18.48;;;;;;;6.80;53.96;102033.44;687352;28;1165;-85
2022/01/27 01:54:05;;;;;;;33.15;18.65;;;;;;;6.83;54.14;102028.44;684870;28;1275;-85
2022/01/27 01:54:26;;;;;;;37.08;19.20;;;;;;;6.80;54.30;102027.34;687725;28;1250;-85
2022/01/27 01:54:47;;;;;;;38.40;19.27;;;;;;;6.77;53.95;102022.88;685060;28;834;-84
2022/01/27 01:55:08;;;;;;;36.70;19.27;;;;;;;6.78;54.06;102031.56;687599;28;1193;-84
2022/01/27 01:55:31;;;;;;;34.72;19.52;;;;;;;6.76;54.17;102023.66;684775;28;2044;-84
2022/01/27 01:55:51;;;;;;;34.55;19.00;;;;;;;6.80;54.40;102049.03;684935;28;1330;-84
2022/01/27 01:56:12;;;;;;;34.70;18.65;;;;;;;6.78;54.28;102027.28;688820;28;1069;-85
2022/01/27 01:56:34;;;;;;;34.17;18.40;;;;;;;6.82;53.94;102039.63;687729;28;1064;-85
2022/01/27 01:56:55;;;;;;;33.00;18.60;;;;;;;6.83;54.22;102024.97;687683;28;1446;-85
2022/01/27 01:57:16;;;;;;;32.37;18.20;;;;;;;6.88;54.00;102025.25;687664;28;1198;-85
2022/01/27 01:57:37;;;;;;;33.35;17.95;;;;;;;6.80;53.70;102042.91;687625;28;1377;-84
2022/01/27 01:57:58;;;;;;;37.22;18.27;;;;;;;6.86;54.00;102032.94;687665;28;1134;-84
2022/01/27 01:58:19;;;;;;;36.85;18.10;;;;;;;6.87;53.90;102028.66;693001;28;1143;-85
2022/01/27 01:58:39;;;;;;;35.13;17.58;;;;;;;6.85;54.00;102032.06;690561;28;771;-85
2022/01/27 01:59:07;;;;;;;32.67;17.67;;;;;;;6.85;53.99;102019.09;693910;28;1118;-85
2022/01/27 01:59:28;;;;;;;35.95;18.73;;;;;;;6.95;53.74;102032.63;692956;28;1356;-85
2022/01/27 01:59:49;;;;;;;38.88;19.60;;;;;;;6.89;53.82;102032.25;688119;28;1339;-84
2022/01/27 02:00:12;;;;;;;37.80;19.05;;;;;;;6.92;53.63;102035.00;684438;28;1465;-85
2022/01/27 02:00:34;;;;;;;36.38;18.33;;;;;;;6.92;53.87;102029.81;682274;29;1310;-84
2022/01/27 02:00:54;;;;;;;36.58;18.67;;;;;;;6.87;53.76;102033.84;685035;28;1149;-84
2022/01/27 02:01:17;;;;;;;36.80;18.67;;;;;;;6.85;53.78;102044.13;687812;28;1198;-85
2022/01/27 02:01:39;;;;;;;35.38;18.40;;;;;;;6.89;54.07;102029.63;684617;28;2038;-85
2022/01/27 02:02:06;;;;;;;33.83;17.67;;;;;;;6.90;53.78;102047.00;683014;28;1099;-85
2022/01/27 02:02:26;;;;;;;32.42;17.45;;;;;;;6.90;53.98;102034.94;686071;28;1582;-84
2022/01/27 02:02:47;;;;;;;34.10;17.87;;;;;;;6.91;53.87;102036.72;687901;28;869;-84
2022/01/27 02:03:07;;;;;;;32.90;18.02;;;;;;;6.91;53.68;102041.00;684988;28;1060;-85
2022/01/27 02:03:28;;;;;;;33.63;18.10;;;;;;;6.87;53.82;102055.50;687782;28;843;-84
2022/01/27 02:03:49;;;;;;;32.70;17.90;;;;;;;6.91;54.06;102043.59;684772;28;1343;-84
2022/01/27 02:04:11;;;;;;;34.80;18.77;;;;;;;6.80;53.78;102028.25;687429;28;1362;-85
2022/01/27 02:04:32;;;;;;;36.17;19.08;;;;;;;6.84;53.85;102034.53;687769;28;1051;-85
2022/01/27 02:04:54;;;;;;;35.35;18.50;;;;;;;6.81;54.04;102045.63;687917;28;740;-85
2022/01/27 02:05:15;;;;;;;35.85;17.88;;;;;;;6.88;53.94;102040.81;687081;28;1541;-85
2022/01/27 02:05:42;;;;;;;34.80;17.98;;;;;;;6.87;53.51;102039.91;685080;28;1347;-85
2022/01/27 02:06:03;;;;;;;35.08;18.38;;;;;;;6.93;53.64;102050.69;690252;28;1131;-84
2022/01/27 02:06:32;;;;;;;33.73;18.17;;;;;;;6.83;53.73;102033.63;687816;28;764;-84
2022/01/27 02:06:57;;;;;;;33.80;17.63;;;;;;;6.97;53.80;102054.38;685120;28;904;-85
2022/01/27 02:07:35;;;;;;;33.30;17.25;;;;;;;6.89;53.56;102034.84;689615;28;1302;-84
2022/01/27 02:09:04;;;;;;;33.50;17.77;;;;;;;6.92;53.49;102029.81;690466;28;866;-84
2022/01/27 02:09:33;;;;;;;36.17;18.23;;;;;;;6.93;53.76;102039.44;688982;28;1355;-84
2022/01/27 02:18:20;;;;;;;35.85;18.20;;;;;;;6.78;53.56;101974.47;685398;28;1208;-84
2022/01/27 02:18:40;;;;;;;32.47;17.30;;;;;;;6.83;53.65;101978.25;685359;28;1003;-84
2022/01/27 02:19:01;;;;;;;33.42;17.15;;;;;;;6.76;53.36;101969.16;690508;28;1751;-83
2022/01/27 02:19:24;;;;;;;32.13;17.00;;;;;;;6.76;53.74;101963.09;689585;28;1310;-84
2022/01/27 02:19:45;;;;;;;34.30;17.25;;;;;;;6.72;53.44;101987.97;685035;28;1362;-85
2022/01/27 02:20:07;;;;;;;31.43;16.60;;;;;;;6.82;53.28;101999.81;686969;28;1180;-84
2022/01/27 02:20:29;;;;;;;32.75;16.70;;;;;;;6.81;53.70;101985.94;684576;28;2368;-84
2022/01/27 02:20:50;;;;;;;33.70;15.90;;;;;;;6.76;53.57;102002.91;688767;28;2410;-84
2022/01/27 02:21:10;;;;;;;33.07;16.27;;;;;;;6.77;53.71;102012.50;687807;28;1173;-84
2022/01/27 02:21:31;;;;;;;32.23;16.37;;;;;;;6.78;53.71;101998.72;687963;28;1252;-84
2022/01/27 02:21:54;;;;;;;33.17;17.60;;;;;;;6.77;53.74;101994.34;693513;28;1049;-84
2022/01/27 02:22:15;;;;;;;32.38;17.02;;;;;;;6.83;53.68;102012.88;687691;28;1595;-84
2022/01/27 02:22:37;;;;;;;32.67;17.30;;;;;;;6.85;53.61;102015.56;691146;28;807;-84
2022/01/27 02:22:58;;;;;;;33.95;17.42;;;;;;;6.78;53.65;102009.09;687987;28;1281;-84
2022/01/27 02:23:19;;;;;;;32.00;17.30;;;;;;;6.79;53.68;102005.72;693717;28;1213;-85
2022/01/27 02:23:40;;;;;;;31.92;17.10;;;;;;;6.88;53.40;102010.56;690895;28;1022;-84
2022/01/27 02:24:00;;;;;;;30.23;17.17;;;;;;;6.85;53.62;102012.97;690749;28;1559;-84
2022/01/27 02:24:23;;;;;;;30.70;17.10;;;;;;;6.93;53.49;102016.06;688095;28;1234;-84
2022/01/27 02:24:43;;;;;;;29.75;17.08;;;;;;;6.83;53.28;102032.75;688280;28;1557;-84
2022/01/27 02:25:15;;;;;;;30.35;17.00;;;;;;;6.81;53.62;101998.91;685765;28;1181;-84
2022/01/27 02:25:36;;;;;;;32.78;16.70;;;;;;;6.92;53.28;102022.94;688110;28;1223;-84
2022/01/27 02:25:57;;;;;;;36.85;17.25;;;;;;;6.85;53.53;102000.91;685358;28;1450;-84
2022/01/27 02:26:17;;;;;;;36.03;17.42;;;;;;;6.83;53.36;102018.06;688039;28;1073;-84
2022/01/27 02:26:40;;;;;;;33.55;17.77;;;;;;;6.79;53.56;102007.38;688202;28;1178;-84
2022/01/27 02:27:02;;;;;;;30.77;17.30;;;;;;;6.85;53.36;101998.31;688241;28;1300;-85
2022/01/27 02:27:23;;;;;;;32.00;17.02;;;;;;;6.89;53.17;101998.50;688691;28;1384;-85
2022/01/27 02:27:44;;;;;;;33.42;17.70;;;;;;;6.94;53.64;102007.47;685546;28;1434;-85